createdAt,value
2018-04-26T00:00:59.437Z,4.23
2018-04-26T00:03:25.340Z,4.80
2018-04-26T00:05:51.220Z,4.47
2018-04-26T00:08:17.258Z,4.63
2018-04-26T00:10:43.217Z,4.30
2018-04-26T00:13:09.110Z,4.63
2018-04-26T00:15:35.015Z,4.87
2018-04-26T00:18:01.229Z,4.30
2018-04-26T00:20:27.292Z,4.57
2018-04-26T00:22:53.171Z,4.00
2018-04-26T00:25:19.147Z,4.30
2018-04-26T00:27:45.107Z,4.33
2018-04-26T00:30:10.979Z,3.80
2018-04-26T00:32:37.060Z,4.10
2018-04-26T00:35:02.982Z,4.60
2018-04-26T00:37:28.888Z,4.33
2018-04-26T00:39:54.852Z,4.17
2018-04-26T00:42:20.737Z,3.97
2018-04-26T00:44:46.752Z,4.33
2018-04-26T00:47:12.959Z,4.60
2018-04-26T00:49:38.865Z,5.30
2018-04-26T00:52:04.750Z,4.60
2018-04-26T00:54:30.704Z,4.23
2018-04-26T00:56:56.752Z,4.50
2018-04-26T00:59:22.660Z,5.20
2018-04-26T01:01:48.575Z,4.67
2018-04-26T01:04:14.500Z,4.47
2018-04-26T01:06:40.380Z,4.60
2018-04-26T01:09:06.464Z,4.43
2018-04-26T01:11:32.353Z,4.53
2018-04-26T01:13:58.288Z,4.43
2018-04-26T01:16:24.384Z,5.17
2018-04-26T01:18:50.275Z,4.60
2018-04-26T01:21:16.337Z,5.00
2018-04-26T01:23:42.254Z,5.30
2018-04-26T01:26:08.143Z,5.17
2018-04-26T01:28:34.023Z,5.03
2018-04-26T01:31:00.040Z,4.80
2018-04-26T01:33:26.108Z,4.80
2018-04-26T01:35:51.982Z,5.10
2018-04-26T01:38:17.887Z,4.50
2018-04-26T01:40:43.781Z,4.60
2018-04-26T01:43:09.667Z,4.60
2018-04-26T01:45:35.720Z,4.83
2018-04-26T01:48:01.641Z,5.10
2018-04-26T01:50:27.538Z,4.70
2018-04-26T01:52:53.748Z,5.07
2018-04-26T01:55:19.628Z,5.70
2018-04-26T01:57:45.639Z,4.90
2018-04-26T02:00:11.569Z,5.30
2018-04-26T02:02:37.452Z,5.20
2018-04-26T02:05:03.365Z,5.43
2018-04-26T02:07:29.309Z,5.33
2018-04-26T02:09:56.135Z,6.00
2018-04-26T02:12:22.024Z,5.50
2018-04-26T02:14:48.014Z,5.40
2018-04-26T02:17:13.891Z,5.23
2018-04-26T02:19:39.793Z,6.10
2018-04-26T02:22:06.260Z,5.37
2018-04-26T02:24:32.139Z,5.07
2018-04-26T02:26:58.040Z,5.80
2018-04-26T02:29:23.985Z,6.37
2018-04-26T02:31:49.865Z,5.53
2018-04-26T02:34:15.897Z,6.30
2018-04-26T02:36:41.842Z,6.87
2018-04-26T02:39:07.722Z,5.93
2018-04-26T02:41:33.636Z,6.10
2018-04-26T02:43:59.609Z,7.47
2018-04-26T02:46:25.642Z,6.90
2018-04-26T02:48:51.541Z,7.03
2018-04-26T02:51:17.475Z,7.83
2018-04-26T02:53:43.354Z,7.63
2018-04-26T02:56:09.222Z,7.87
2018-04-26T02:58:35.292Z,8.00
2018-04-26T03:01:02.225Z,8.30
2018-04-26T03:03:28.125Z,7.80
2018-04-26T03:05:56.978Z,7.23
2018-04-26T03:08:22.939Z,7.53
2018-04-26T03:10:48.903Z,6.80
2018-04-26T03:13:14.849Z,7.50
2018-04-26T03:15:40.711Z,7.50
2018-04-26T03:18:06.615Z,8.10
2018-04-26T03:20:32.549Z,8.10
2018-04-26T03:22:58.574Z,7.70
2018-04-26T03:25:24.483Z,7.57
2018-04-26T03:27:51.136Z,6.77
2018-04-26T03:30:17.011Z,8.07
2018-04-26T03:32:42.871Z,7.30
2018-04-26T03:35:08.915Z,7.70
2018-04-26T03:37:34.802Z,8.10
2018-04-26T03:40:00.678Z,8.17
2018-04-26T03:42:26.588Z,8.37
2018-04-26T03:44:52.495Z,7.87
2018-04-26T03:47:18.543Z,8.07
2018-04-26T03:49:44.470Z,8.03
2018-04-26T03:52:10.376Z,7.00
2018-04-26T03:54:36.285Z,7.70
2018-04-26T03:57:02.209Z,7.40
2018-04-26T03:59:28.235Z,8.27
2018-04-26T04:02:06.445Z,8.67
2018-04-26T04:04:44.834Z,8.50
2018-04-26T04:07:10.757Z,7.90
2018-04-26T04:09:36.812Z,8.73
2018-04-26T04:12:02.713Z,8.80
2018-04-26T04:14:28.661Z,8.60
2018-04-26T04:16:54.604Z,8.63
2018-04-26T04:19:20.573Z,9.00
2018-04-26T04:21:46.648Z,9.00
2018-04-26T04:24:12.527Z,8.90
2018-04-26T04:26:38.419Z,9.57
2018-04-26T04:29:04.344Z,10.40
2018-04-26T04:31:30.267Z,10.00
2018-04-26T04:33:56.361Z,8.87
2018-04-26T04:36:22.264Z,9.20
2018-04-26T04:38:48.152Z,9.20
2018-04-26T04:41:14.014Z,9.13
2018-04-26T04:43:39.943Z,10.60
2018-04-26T04:46:05.947Z,9.10
2018-04-26T04:48:31.824Z,10.03
2018-04-26T04:50:57.730Z,9.13
2018-04-26T04:53:23.628Z,9.33
2018-04-26T04:55:49.500Z,9.87
2018-04-26T04:58:15.564Z,12.00
2018-04-26T05:00:41.453Z,11.53
2018-04-26T05:03:07.339Z,10.53
2018-04-26T05:05:33.254Z,10.87
2018-04-26T05:07:59.155Z,10.40
2018-04-26T05:10:25.179Z,10.47
2018-04-26T05:12:51.115Z,10.60
2018-04-26T05:15:16.988Z,11.07
2018-04-26T05:17:42.864Z,10.53
2018-04-26T05:20:08.950Z,11.40
2018-04-26T05:22:34.947Z,12.03
2018-04-26T05:25:00.799Z,10.07
2018-04-26T05:27:27.000Z,9.50
2018-04-26T05:29:52.896Z,10.57
2018-04-26T05:32:18.776Z,10.23
2018-04-26T05:34:44.864Z,10.73
2018-04-26T05:37:10.713Z,11.30
2018-04-26T05:39:36.612Z,11.00
2018-04-26T05:42:02.616Z,12.70
2018-04-26T05:44:28.502Z,12.47
2018-04-26T05:46:54.567Z,13.17
2018-04-26T05:49:20.475Z,14.17
2018-04-26T05:51:46.342Z,13.33
2018-04-26T05:54:12.221Z,13.73
2018-04-26T05:56:38.136Z,14.03
2018-04-26T05:59:04.168Z,14.37
2018-04-26T06:01:30.057Z,14.73
2018-04-26T06:03:55.955Z,15.20
2018-04-26T06:06:21.825Z,15.27
2018-04-26T06:08:47.698Z,14.30
2018-04-26T06:11:13.732Z,14.63
2018-04-26T06:13:39.668Z,14.80
2018-04-26T06:16:05.514Z,14.77
2018-04-26T06:18:31.476Z,17.33
2018-04-26T06:20:57.340Z,16.23
2018-04-26T06:23:23.360Z,16.27
2018-04-26T06:25:49.576Z,15.30
2018-04-26T06:28:15.441Z,16.77
2018-04-26T06:30:41.346Z,17.83
2018-04-26T06:33:14.989Z,18.43
2018-04-26T06:35:41.027Z,18.70
2018-04-26T06:38:06.949Z,17.77
2018-04-26T06:40:32.904Z,17.00
2018-04-26T06:42:58.801Z,15.53
2018-04-26T06:45:24.681Z,16.83
2018-04-26T06:47:50.842Z,17.60
2018-04-26T06:50:16.648Z,18.53
2018-04-26T06:52:42.567Z,16.93
2018-04-26T06:55:08.487Z,16.30
2018-04-26T06:57:34.377Z,15.43
2018-04-26T07:00:00.442Z,16.10
2018-04-26T07:02:26.372Z,16.30
2018-04-26T07:04:52.254Z,13.47
2018-04-26T07:07:18.116Z,14.87
2018-04-26T07:09:44.054Z,13.93
2018-04-26T07:12:10.118Z,13.20
2018-04-26T07:14:36.095Z,13.80
2018-04-26T07:17:02.009Z,15.00
2018-04-26T07:19:33.376Z,15.93
2018-04-26T07:21:59.251Z,17.13
2018-04-26T07:24:25.673Z,16.00
2018-04-26T07:26:51.628Z,14.43
2018-04-26T07:29:17.494Z,13.87
2018-04-26T07:31:43.435Z,11.83
2018-04-26T07:34:09.339Z,12.60
2018-04-26T07:36:35.499Z,11.97
2018-04-26T07:39:01.477Z,13.80
2018-04-26T07:41:27.351Z,14.00
2018-04-26T07:43:53.305Z,13.50
2018-04-26T07:46:19.217Z,14.93
2018-04-26T07:48:45.279Z,15.53
2018-04-26T07:51:11.154Z,15.90
2018-04-26T07:53:37.140Z,16.43
2018-04-26T07:56:03.036Z,15.33
2018-04-26T07:58:28.907Z,16.97
2018-04-26T08:00:59.256Z,15.67
2018-04-26T08:03:25.125Z,15.70
2018-04-26T08:05:51.021Z,16.93
2018-04-26T08:08:16.932Z,16.70
2018-04-26T08:10:42.812Z,18.03
2018-04-26T08:13:08.829Z,16.47
2018-04-26T08:15:34.751Z,15.37
2018-04-26T08:18:00.789Z,16.47
2018-04-26T08:20:26.673Z,14.43
2018-04-26T08:22:52.681Z,14.13
2018-04-26T08:25:18.691Z,13.43
2018-04-26T08:27:46.591Z,12.43
2018-04-26T08:30:12.933Z,12.33
2018-04-26T08:32:38.840Z,12.73
2018-04-26T08:35:04.728Z,12.80
2018-04-26T08:37:30.791Z,13.33
2018-04-26T08:39:56.679Z,13.23
2018-04-26T08:42:22.559Z,11.23
2018-04-26T08:44:48.552Z,12.47
2018-04-26T08:47:14.440Z,12.90
2018-04-26T08:49:40.499Z,7.23
2018-04-26T08:52:06.432Z,7.20
2018-04-26T08:54:32.325Z,6.33
2018-04-26T08:56:58.221Z,8.43
2018-04-26T08:59:24.145Z,9.77
2018-04-26T09:01:50.205Z,11.57
2018-04-26T09:04:16.095Z,12.80
2018-04-26T09:06:42.081Z,13.53
2018-04-26T09:09:07.999Z,15.13
2018-04-26T09:11:33.888Z,15.60
2018-04-26T09:13:59.919Z,14.13
2018-04-26T09:16:25.797Z,14.07
2018-04-26T09:18:51.768Z,14.37
2018-04-26T09:21:17.738Z,11.57
2018-04-26T09:23:43.599Z,7.03
2018-04-26T09:26:09.652Z,7.80
2018-04-26T09:28:35.568Z,6.20
2018-04-26T09:31:01.448Z,5.10
2018-04-26T09:33:27.854Z,4.60
2018-04-26T09:35:53.887Z,4.80
2018-04-26T09:38:19.906Z,4.40
2018-04-26T09:40:46.105Z,3.57
2018-04-26T09:43:12.049Z,3.23
2018-04-26T09:45:37.940Z,3.10
2018-04-26T09:48:03.817Z,3.10
2018-04-26T09:50:29.871Z,3.37
2018-04-26T09:52:55.739Z,3.53
2018-04-26T09:55:21.639Z,3.50
2018-04-26T09:57:47.557Z,3.77
2018-04-26T10:00:13.456Z,4.00
2018-04-26T10:02:45.519Z,3.93
2018-04-26T10:05:11.452Z,3.60
2018-04-26T10:07:37.350Z,3.57
2018-04-26T10:10:03.251Z,3.70
2018-04-26T10:12:29.163Z,3.20
2018-04-26T10:14:55.179Z,3.20
2018-04-26T10:17:21.075Z,3.87
2018-04-26T10:19:50.908Z,3.63
2018-04-26T10:22:16.833Z,3.90
2018-04-26T10:24:42.768Z,3.30
2018-04-26T10:27:08.828Z,3.37
2018-04-26T10:29:34.719Z,3.47
2018-04-26T10:32:00.609Z,3.70
2018-04-26T10:34:26.543Z,2.53
2018-04-26T10:36:52.439Z,3.13
2018-04-26T10:39:18.478Z,2.70
2018-04-26T10:41:44.395Z,2.73
2018-04-26T10:44:10.294Z,2.80
2018-04-26T10:46:36.180Z,3.17
2018-04-26T10:49:02.149Z,3.00
2018-04-26T10:51:30.452Z,3.33
2018-04-26T10:53:56.347Z,3.40
2018-04-26T10:56:22.272Z,3.60
2018-04-26T10:58:48.500Z,4.63
2018-04-26T11:01:14.401Z,4.13
2018-04-26T11:03:40.803Z,3.73
2018-04-26T11:06:06.675Z,4.07
2018-04-26T11:08:32.557Z,4.17
2018-04-26T11:10:59.550Z,4.30
2018-04-26T11:13:25.443Z,4.10
2018-04-26T11:15:51.466Z,4.73
2018-04-26T11:18:17.529Z,4.23
2018-04-26T11:20:43.523Z,3.63
2018-04-26T11:23:09.501Z,3.53
2018-04-26T11:26:01.775Z,3.40
2018-04-26T11:28:29.145Z,3.10
2018-04-26T11:30:55.217Z,2.60
2018-04-26T11:33:21.155Z,2.97
2018-04-26T11:35:48.200Z,2.97
2018-04-26T11:38:14.454Z,2.80
2018-04-26T11:40:40.475Z,2.80
2018-04-26T11:43:06.356Z,3.30
2018-04-26T11:45:32.334Z,2.93
2018-04-26T11:47:58.231Z,2.80
2018-04-26T11:50:24.251Z,2.80
2018-04-26T11:52:50.448Z,2.67
2018-04-26T11:55:16.461Z,2.10
2018-04-26T11:57:42.425Z,2.27
2018-04-26T12:00:08.563Z,2.33
2018-04-26T12:02:34.871Z,2.20
2018-04-26T12:05:01.396Z,2.07
2018-04-26T12:07:27.767Z,2.30
2018-04-26T12:09:56.520Z,2.00
2018-04-26T12:12:31.184Z,2.03
2018-04-26T12:15:01.227Z,1.87
2018-04-26T12:17:27.160Z,2.10
2018-04-26T12:19:53.198Z,2.10
2018-04-26T12:22:19.144Z,1.80
2018-04-26T12:24:46.497Z,1.87
2018-04-26T12:27:12.884Z,1.90
2018-04-26T12:29:38.794Z,2.10
2018-04-26T12:32:04.691Z,2.10
2018-04-26T12:34:30.850Z,2.60
2018-04-26T12:36:56.740Z,2.57
2018-04-26T12:39:23.001Z,2.80
2018-04-26T12:41:49.396Z,2.83
2018-04-26T12:44:21.477Z,2.63
2018-04-26T12:46:47.420Z,2.90
2018-04-26T12:49:13.338Z,3.27
2018-04-26T12:51:40.059Z,3.40
2018-04-26T12:54:05.930Z,3.20
2018-04-26T12:56:31.877Z,4.30
2018-04-26T12:58:57.988Z,3.63
2018-04-26T13:01:23.893Z,3.90
2018-04-26T13:03:50.549Z,3.73
2018-04-26T13:06:16.428Z,3.60
2018-04-26T13:08:42.297Z,3.40
2018-04-26T13:11:08.584Z,4.17
2018-04-26T13:13:34.472Z,4.00
2018-04-26T13:16:01.202Z,4.00
2018-04-26T13:18:27.342Z,4.13
2018-04-26T13:20:53.224Z,3.97
2018-04-26T13:23:19.416Z,5.80
2018-04-26T13:25:45.353Z,4.37
2018-04-26T13:28:11.886Z,4.03
2018-04-26T13:30:37.786Z,2.80
2018-04-26T13:33:03.754Z,2.90
2018-04-26T13:35:30.065Z,2.87
2018-04-26T13:37:56.136Z,2.57
2018-04-26T13:40:22.543Z,2.20
2018-04-26T13:42:48.469Z,2.13
2018-04-26T13:45:14.371Z,2.30
2018-04-26T13:47:40.601Z,2.23
2018-04-26T13:50:06.510Z,2.50
2018-04-26T13:52:32.897Z,2.63
2018-04-26T13:55:00.237Z,2.17
2018-04-26T13:57:26.344Z,1.83
2018-04-26T13:59:55.820Z,2.30
2018-04-26T14:02:21.797Z,2.30
2018-04-26T14:04:47.849Z,2.00
2018-04-26T14:07:13.788Z,2.10
2018-04-26T14:09:39.711Z,2.30
2018-04-26T14:12:05.593Z,2.20
2018-04-26T14:14:31.838Z,2.70
2018-04-26T14:16:57.987Z,3.10
2018-04-26T14:19:26.532Z,2.70
2018-04-26T14:21:52.452Z,2.67
2018-04-26T14:24:18.433Z,2.70
2018-04-26T14:26:44.381Z,1.80
2018-04-26T14:29:10.435Z,1.87
2018-04-26T14:31:36.443Z,1.87
2018-04-26T14:34:02.324Z,1.60
2018-04-26T14:36:28.213Z,1.70
2018-04-26T14:38:55.199Z,1.60
2018-04-26T14:41:21.112Z,1.80
2018-04-26T14:43:47.014Z,1.70
2018-04-26T14:46:12.920Z,1.93
2018-04-26T14:48:38.818Z,2.10
2018-04-26T14:51:04.979Z,1.90
2018-04-26T14:53:30.898Z,1.83
2018-04-26T14:55:56.950Z,2.03
2018-04-26T14:58:22.861Z,2.30
2018-04-26T15:00:48.940Z,1.97
2018-04-26T15:03:14.811Z,2.10
2018-04-26T15:05:40.707Z,2.10
2018-04-26T15:08:07.016Z,2.03
2018-04-26T15:10:32.928Z,2.40
2018-04-26T15:12:58.840Z,2.37
2018-04-26T15:15:24.819Z,2.20
2018-04-26T15:17:51.803Z,1.90
2018-04-26T15:20:18.458Z,2.40
2018-04-26T15:22:44.396Z,1.97
2018-04-26T15:25:10.300Z,2.20
2018-04-26T15:27:36.330Z,2.77
2018-04-26T15:30:02.382Z,2.60
2018-04-26T15:32:28.245Z,2.50
2018-04-26T15:34:54.924Z,3.23
2018-04-26T15:37:20.889Z,3.20
2018-04-26T15:39:47.258Z,2.80
2018-04-26T15:42:13.262Z,3.43
2018-04-26T15:44:39.176Z,3.03
2018-04-26T15:47:05.116Z,3.17
2018-04-26T15:49:31.008Z,2.97
2018-04-26T15:51:57.155Z,3.03
2018-04-26T15:54:33.359Z,3.20
2018-04-26T15:57:32.239Z,3.50
2018-04-26T16:00:10.419Z,3.20
2018-04-26T16:09:18.331Z,2.97
2018-04-26T16:11:56.478Z,3.10
2018-04-26T16:14:34.988Z,3.10
2018-04-26T16:17:24.659Z,3.13
2018-04-26T16:20:09.058Z,3.50
2018-04-26T16:26:07.354Z,3.60
2018-04-26T16:28:52.446Z,2.90
2018-04-26T16:31:37.151Z,2.90
2018-04-26T16:34:15.395Z,2.97
2018-04-26T16:36:53.740Z,3.00
2018-04-26T16:39:19.692Z,2.97
2018-04-26T16:41:45.572Z,2.50
2018-04-26T16:44:12.330Z,2.77
2018-04-26T16:46:38.215Z,2.87
2018-04-26T16:49:04.227Z,3.30
2018-04-26T16:51:30.265Z,3.10
2018-04-26T16:53:56.179Z,3.47
2018-04-26T16:56:22.098Z,2.93
2018-04-26T16:58:48.042Z,3.47
2018-04-26T17:01:13.928Z,3.23
2018-04-26T17:03:39.905Z,3.50
2018-04-26T17:06:05.859Z,3.57
2018-04-26T17:08:31.742Z,4.17
2018-04-26T17:10:57.643Z,3.70
2018-04-26T17:13:23.576Z,3.70
2018-04-26T17:15:49.686Z,3.90
2018-04-26T17:18:15.574Z,3.73
2018-04-26T17:20:41.536Z,3.83
2018-04-26T17:23:07.403Z,3.50
2018-04-26T17:25:33.346Z,4.07
2018-04-26T17:27:59.437Z,4.57
2018-04-26T17:30:25.297Z,3.93
2018-04-26T17:32:51.193Z,4.53
2018-04-26T17:35:17.127Z,4.70
2018-04-26T17:37:43.002Z,4.20
